Time;durP1;ratioP1;P1;durP2;ratioP2;P2;SDS_P1;SDS_P2;PMS_P1;PMS_P2;Temp;Humidity;BMP_temperature;BMP_pressure;BME280_temperature;BME280_humidity;BME280_pressure;Samples;Min_cycle;Max_cycle;Signal;HPM_P1;HPM_P2
2023/01/14 00:01:02;;;;;;;;;29.25;24.00;;;;;5.60;69.20;101410.03;146615;594;46918;-67
2023/01/14 00:04:02;;;;;;;;;34.75;29.25;;;;;5.57;68.88;101409.78;146620;643;46021;-69
2023/01/14 00:07:08;;;;;;;;;33.50;29.75;;;;;5.51;68.94;101406.72;146611;684;46014;-66
2023/01/14 00:10:02;;;;;;;;;36.50;32.25;;;;;5.47;69.00;101410.72;146620;584;46010;-66
2023/01/14 00:13:11;;;;;;;;;26.75;24.00;;;;;2.59;68.10;100909.25;146612;581;46016;-65
2023/01/14 00:16:09;;;;;;;;;27.50;25.50;;;;;5.45;69.27;101414.84;146618;636;46010;-66
2023/01/14 00:19:14;;;;;;;;;27.75;22.50;;;;;3.78;68.52;101130.31;146618;572;46012;-66
2023/01/14 00:22:14;;;;;;;;;29.25;23.50;;;;;5.41;69.62;101422.19;146620;570;46020;-66
2023/01/14 00:25:11;;;;;;;;;32.50;25.50;;;;;5.37;70.61;101423.59;146616;597;46012;-66
2023/01/14 00:28:13;;;;;;;;;33.00;27.50;;;;;5.36;70.25;101429.53;146618;596;45020;-65
2023/01/14 00:31:18;;;;;;;;;28.25;26.75;;;;;5.35;71.29;101435.41;146609;609;46016;-67
2023/01/14 00:34:29;;;;;;;;;;;;;;;;;;;;;
2023/01/14 00:37:22;;;;;;;;;27.75;27.25;;;;;5.41;70.37;101443.66;146607;579;46012;-68
2023/01/14 00:40:31;;;;;;;;;24.25;20.25;;;;;5.46;69.36;101447.50;146612;569;46021;-67
2023/01/14 00:43:26;;;;;;;;;24.00;21.75;;;;;5.44;70.13;101441.31;146634;579;45917;-68
2023/01/14 00:46:36;;;;;;;;;23.25;20.50;;;;;5.37;69.66;101443.28;146634;570;45021;-70
2023/01/14 00:49:40;;;;;;;;;22.50;18.75;;;;;5.29;70.04;101445.19;146632;632;45016;-69
2023/01/14 00:52:38;;;;;;;;;22.25;16.50;;;;;5.24;69.61;101449.06;146633;581;46020;-69
2023/01/14 00:55:42;;;;;;;;;25.00;20.00;;;;;5.19;70.25;101440.06;146635;593;45016;-69
2023/01/14 00:59:02;;;;;;;;;;;;;;;;;;;;;
2023/01/14 01:02:01;;;;;;;;;23.00;20.00;;;;;5.10;70.19;101453.03;146635;577;45016;-66
2023/01/14 01:05:10;;;;;;;;;24.00;21.00;;;;;5.12;69.56;101455.75;146637;563;45020;-66
2023/01/14 01:08:05;;;;;;;;;27.25;24.25;;;;;5.13;69.86;101453.28;146635;667;45015;-67
2023/01/14 01:11:00;;;;;;;;;20.00;19.00;;;;;5.12;70.02;101448.03;146637;564;45010;-66
2023/01/14 01:14:13;;;;;;;;;22.25;18.25;;;;;3.38;68.16;101150.88;146635;595;45012;-67
2023/01/14 01:17:16;;;;;;;;;20.25;18.00;;;;;5.01;68.86;101436.81;146636;656;45020;-67
2023/01/14 01:20:12;;;;;;;;;18.50;16.25;;;;;4.96;69.37;101433.87;146632;563;46012;-66
2023/01/14 01:23:14;;;;;;;;;17.75;14.75;;;;;4.96;69.87;101438.13;146638;694;45020;-67
2023/01/14 01:26:10;;;;;;;;;20.50;14.00;;;;;4.94;69.99;101437.09;146634;606;46919;-68
2023/01/14 01:29:32;;;;;;;;;14.50;10.50;;;;;3.22;68.53;101133.25;146635;563;46010;-69
2023/01/14 01:32:33;;;;;;;;;17.75;15.25;;;;;4.89;69.79;101418.72;146637;582;45013;-65
2023/01/14 01:35:43;;;;;;;;;20.00;13.50;;;;;4.87;70.51;101422.81;146635;577;45029;-67
2023/01/14 01:38:43;;;;;;;;;25.75;19.50;;;;;4.85;70.73;101416.66;146637;613;45885;-64
2023/01/14 01:41:42;;;;;;;;;14.75;13.00;;;;;4.87;70.29;101413.44;146628;589;45042;-64
2023/01/14 01:45:14;;;;;;;;;16.00;15.75;;;;;1.78;68.97;100864.72;146612;709;46012;-64
2023/01/14 01:48:29;;;;;;;;;18.00;12.50;;;;;4.91;68.78;101408.56;146613;577;46026;-66
2023/01/14 01:51:32;;;;;;;;;14.00;12.25;;;;;4.85;68.98;101414.06;146609;563;46012;-65
2023/01/14 01:54:32;;;;;;;;;18.25;15.75;;;;;4.83;69.00;101402.78;146615;583;46010;-66
2023/01/14 01:57:27;;;;;;;;;15.50;14.00;;;;;4.79;68.98;101410.97;146609;654;46917;-65
2023/01/14 02:00:26;;;;;;;;;19.75;17.00;;;;;4.78;69.05;101404.06;146599;782;46914;-66
2023/01/14 02:03:42;;;;;;;;;18.00;17.25;;;;;4.72;69.22;101408.66;146614;593;46012;-68
2023/01/14 02:06:34;;;;;;;;;20.25;17.50;;;;;4.62;69.59;101409.56;146614;669;46020;-67
2023/01/14 02:09:34;;;;;;;;;27.75;23.50;;;;;4.53;71.51;101413.91;146604;577;48918;-67
2023/01/14 02:13:20;;;;;;;;;26.75;24.00;;;;;4.44;71.62;101408.88;146614;598;46010;-66
2023/01/14 02:16:52;;;;;;;;;31.75;27.50;;;;;4.45;71.39;101410.66;146605;617;46017;-66
2023/01/14 02:20:23;;;;;;;;;30.25;26.75;;;;;4.49;70.77;101409.28;146614;569;46010;-67
2023/01/14 02:24:07;;;;;;;;;26.25;23.25;;;;;1.46;69.80;100854.19;146612;668;46016;-66
2023/01/14 02:27:53;;;;;;;;;24.00;23.00;;;;;4.58;69.73;101423.81;146613;574;46020;-66
2023/01/14 02:31:34;;;;;;;;;27.50;24.00;;;;;1.44;69.41;100824.16;146611;724;46016;-68
2023/01/14 02:35:21;;;;;;;;;24.00;21.50;;;;;1.49;69.08;100834.00;146606;633;46020;-67
2023/01/14 02:39:01;;;;;;;;;30.50;24.50;;;;;1.48;69.19;100832.22;146610;587;46016;-68
2023/01/14 02:45:52;;;;;;;;;23.75;21.75;;;;;4.52;69.50;101378.72;146609;633;46018;-65
2023/01/14 02:48:55;;;;;;;;;29.75;24.25;;;;;4.49;70.00;101394.78;146614;587;46010;-65
2023/01/14 02:51:59;;;;;;;;;25.50;19.50;;;;;4.44;70.72;101388.31;146610;592;46017;-67
2023/01/14 02:55:06;;;;;;;;;23.50;18.50;;;;;4.37;69.68;101383.44;146614;589;46021;-65
2023/01/14 02:58:32;;;;;;;;;18.75;16.25;;;;;4.29;70.12;101394.69;146609;593;46033;-65
2023/01/14 03:01:58;;;;;;;;;21.25;17.75;;;;;4.20;70.60;101393.91;146614;645;46021;-68
2023/01/14 03:05:11;;;;;;;;;19.75;19.00;;;;;4.10;70.73;101387.06;146612;563;46016;-66
2023/01/14 03:08:47;;;;;;;;;22.50;20.25;;;;;4.04;70.94;101394.22;146608;598;46011;-67
2023/01/14 03:12:06;;;;;;;;;16.75;14.25;;;;;4.00;71.56;101387.94;146611;615;46915;-66
2023/01/14 03:15:39;;;;;;;;;16.50;16.25;;;;;3.97;71.51;101372.25;146613;629;46020;-66
2023/01/14 03:19:09;;;;;;;;;20.75;13.75;;;;;3.98;71.69;101374.06;146612;573;46012;-66
2023/01/14 03:22:06;;;;;;;;;18.75;16.25;;;;;4.03;72.18;101382.16;146614;605;46020;-66
2023/01/14 03:25:10;;;;;;;;;20.75;17.00;;;;;4.09;72.18;101385.28;146609;584;46017;-66
2023/01/14 03:28:15;;;;;;;;;18.00;14.50;;;;;4.10;71.88;101390.53;146614;575;46010;-65
2023/01/14 03:31:17;;;;;;;;;16.00;13.25;;;;;4.06;72.21;101402.97;146611;566;46012;-67
2023/01/14 03:34:32;;;;;;;;;15.00;12.50;;;;;4.02;72.03;101401.81;146615;599;46020;-66
2023/01/14 03:37:32;;;;;;;;;17.25;16.00;;;;;4.01;72.69;101399.09;146609;627;46014;-65
2023/01/14 03:40:39;;;;;;;;;17.25;14.75;;;;;3.97;72.22;101402.16;146609;565;46030;-63
2023/01/14 03:43:44;;;;;;;;;20.50;16.00;;;;;3.95;72.73;101394.31;146633;570;46012;-64
2023/01/14 03:46:46;;;;;;;;;15.00;13.00;;;;;3.93;72.48;101391.62;146634;634;46010;-64
2023/01/14 03:49:51;;;;;;;;;15.50;13.00;;;;;3.91;72.37;101388.00;146634;623;46014;-63
2023/01/14 03:53:10;;;;;;;;;16.25;14.75;;;;;3.89;71.37;101376.75;146634;605;45020;-64
2023/01/14 03:56:51;;;;;;;;;20.25;14.50;;;;;3.87;71.61;101373.13;146635;579;45016;-63
2023/01/14 04:00:31;;;;;;;;;13.00;12.00;;;;;0.72;71.11;100821.13;146637;674;45021;-64
2023/01/14 04:03:33;;;;;;;;;15.50;12.00;;;;;3.96;71.84;101377.25;146633;599;45018;-64
2023/01/14 04:06:30;;;;;;;;;16.25;11.50;;;;;3.96;72.26;101378.19;146635;573;45010;-64
2023/01/14 04:09:26;;;;;;;;;12.25;11.00;;;;;3.92;72.00;101379.56;146630;581;46012;-64
2023/01/14 04:12:30;;;;;;;;;17.75;14.00;;;;;3.90;72.30;101391.34;146627;566;45010;-67
2023/01/14 04:15:35;;;;;;;;;17.00;15.00;;;;;3.84;72.42;101390.81;146629;590;46017;-67
2023/01/14 04:18:43;;;;;;;;;13.00;12.75;;;;;3.79;72.43;101401.44;146634;603;45028;-66
2023/01/14 04:21:37;;;;;;;;;12.50;12.50;;;;;3.78;72.53;101397.97;146635;593;45012;-66
2023/01/14 04:24:41;;;;;;;;;16.75;15.25;;;;;3.77;72.52;101400.38;146634;566;46010;-64
2023/01/14 04:27:53;;;;;;;;;17.75;14.50;;;;;3.81;72.52;101405.03;146634;627;46012;-64
2023/01/14 04:30:54;;;;;;;;;16.75;11.50;;;;;3.84;72.96;101411.34;146634;606;45021;-64
2023/01/14 04:33:59;;;;;;;;;15.50;13.50;;;;;0.58;71.86;100844.47;146633;651;45035;-65
2023/01/14 04:36:53;;;;;;;;;13.50;11.00;;;;;3.83;72.09;101416.31;146635;570;45027;-67
2023/01/14 04:39:58;;;;;;;;;13.25;13.00;;;;;3.76;72.18;101412.31;146632;588;45016;-68
2023/01/14 04:43:00;;;;;;;;;16.75;13.00;;;;;3.69;72.37;101416.00;146612;601;46020;-67
2023/01/14 04:45:58;;;;;;;;;18.50;16.25;;;;;3.66;73.78;101418.28;146616;585;46016;-68
2023/01/14 04:48:57;;;;;;;;;18.50;15.75;;;;;3.66;74.22;101418.28;146619;665;46012;-68
2023/01/14 04:51:50;;;;;;;;;32.75;29.25;;;;;3.67;73.21;101416.63;146615;565;46017;-68
2023/01/14 04:54:49;;;;;;;;;22.50;18.25;;;;;3.69;73.20;101421.13;146618;634;46010;-70
2023/01/14 04:57:43;;;;;;;;;21.75;17.25;;;;;3.75;73.01;101425.91;146617;585;46016;-69
2023/01/14 05:00:38;;;;;;;;;18.00;16.00;;;;;3.79;73.47;101414.25;146619;647;46029;-67
2023/01/14 05:03:30;;;;;;;;;19.50;17.50;;;;;3.79;73.24;101417.72;146613;594;46033;-68
2023/01/14 05:07:05;;;;;;;;;;;;;;;;;;;;;
2023/01/14 05:10:00;;;;;;;;;30.75;22.75;;;;;3.85;74.15;101418.25;146613;586;46016;-65
2023/01/14 05:13:08;;;;;;;;;;;;;;;;;;;;;
2023/01/14 05:16:23;;;;;;;;;21.00;17.25;;;;;0.63;71.55;100851.81;146617;642;46916;-65
2023/01/14 05:19:28;;;;;;;;;20.00;18.75;;;;;0.69;72.61;100875.34;146621;618;46020;-65
2023/01/14 05:22:32;;;;;;;;;25.00;17.00;;;;;3.80;73.67;101424.66;146612;592;46014;-67
2023/01/14 05:25:31;;;;;;;;;24.00;21.00;;;;;3.76;73.71;101432.81;146624;651;46010;-65
2023/01/14 05:28:36;;;;;;;;;17.50;16.00;;;;;0.56;73.46;100874.97;146617;597;46017;-66
2023/01/14 05:31:40;;;;;;;;;21.75;18.50;;;;;3.72;73.98;101440.13;146620;600;46020;-65
2023/01/14 05:34:44;;;;;;;;;18.75;17.25;;;;;3.73;74.30;101452.19;146615;584;46014;-66
2023/01/14 05:37:40;;;;;;;;;22.00;17.75;;;;;3.72;73.93;101435.00;146619;600;46021;-69
2023/01/14 05:40:32;;;;;;;;;19.25;17.50;;;;;3.80;74.00;101436.56;146613;602;46012;-68
2023/01/14 05:46:38;;;;;;;;;16.00;14.75;;;;;3.71;73.86;101449.50;146634;637;45016;-66
2023/01/14 05:49:43;;;;;;;;;19.50;18.25;;;;;3.69;73.85;101441.62;146636;620;45575;-68
2023/01/14 05:52:39;;;;;;;;;17.75;15.00;;;;;3.68;74.39;101437.28;146631;564;45012;-69
2023/01/14 05:55:35;;;;;;;;;21.00;15.25;;;;;3.65;74.15;101449.84;146637;571;45010;-68
2023/01/14 05:58:32;;;;;;;;;15.75;13.25;;;;;3.63;74.58;101451.34;146635;694;45918;-66
2023/01/14 06:08:31;;;;;;;;;29.25;22.25;;;;;3.68;74.66;101455.25;146636;627;45010;-67
2023/01/14 06:11:40;;;;;;;;;;;;;;;;;;;;;
2023/01/14 06:14:55;;;;;;;;;;;;;;;;;;;;;
2023/01/14 06:18:08;;;;;;;;;;;;;;;;;;;;;
2023/01/14 06:21:14;;;;;;;;;;;;;;;;;;;;;
2023/01/14 06:24:16;;;;;;;;;27.25;22.50;;;;;4.01;73.10;101445.28;146633;596;45016;-68
2023/01/14 06:27:17;;;;;;;;;28.75;22.75;;;;;4.05;73.22;101452.47;146635;606;45010;-68
2023/01/14 06:30:28;;;;;;;;;30.25;23.75;;;;;4.12;73.45;101454.84;146633;576;45919;-69
2023/01/14 06:33:32;;;;;;;;;32.50;27.00;;;;;4.29;74.08;101459.78;146637;618;44049;-68
2023/01/14 06:36:24;;;;;;;;;32.00;30.00;;;;;4.50;73.02;101459.88;146632;598;46915;-68
2023/01/14 06:39:20;;;;;;;;;23.50;19.00;;;;;4.60;72.76;101455.66;146636;570;46012;-67
2023/01/14 06:42:18;;;;;;;;;28.00;24.25;;;;;4.66;73.01;101449.25;146610;581;49918;-67
2023/01/14 06:45:20;;;;;;;;;29.00;24.75;;;;;4.81;73.44;101445.44;146607;722;46021;-67
2023/01/14 06:48:12;;;;;;;;;23.25;21.75;;;;;5.16;73.67;101432.09;146609;637;46016;-67
2023/01/14 06:51:40;;;;;;;;;26.25;18.50;;;;;5.54;72.79;101438.78;146613;633;46010;-67
2023/01/14 06:54:52;;;;;;;;;25.50;20.50;;;;;6.41;75.88;101438.91;146609;597;46016;-68
2023/01/14 06:57:56;;;;;;;;;26.50;20.25;;;;;7.37;73.07;101440.28;146614;650;46011;-68
2023/01/14 07:01:05;;;;;;;;;27.25;25.50;;;;;8.16;68.68;101428.88;146610;626;46017;-65
2023/01/14 07:04:06;;;;;;;;;45.50;35.00;;;;;8.75;64.38;101425.41;146613;563;46020;-68
2023/01/14 07:07:17;;;;;;;;;39.00;34.00;;;;;9.02;63.23;101418.62;146609;573;46013;-67
2023/01/14 07:10:13;;;;;;;;;47.50;35.25;;;;;9.12;61.85;101417.56;146613;596;45030;-66
2023/01/14 07:13:11;;;;;;;;;52.50;37.50;;;;;9.23;63.66;101421.78;146612;599;46013;-67
2023/01/14 07:16:17;;;;;;;;;42.50;35.00;;;;;9.50;63.28;101424.41;146607;653;46020;-71
2023/01/14 07:19:13;;;;;;;;;49.25;39.75;;;;;9.73;60.30;101425.97;146608;585;46016;-67
2023/01/14 07:22:14;;;;;;;;;35.00;29.25;;;;;9.72;60.14;101424.19;146612;595;47010;-64
2023/01/14 07:25:10;;;;;;;;;32.50;26.00;;;;;9.66;60.80;101413.41;146606;563;47918;-64
2023/01/14 07:28:16;;;;;;;;;46.50;36.75;;;;;9.56;60.54;101419.66;146613;637;46021;-64
2023/01/14 07:31:16;;;;;;;;;42.25;31.00;;;;;9.39;61.08;101415.06;146608;646;46025;-63
2023/01/14 07:34:16;;;;;;;;;40.75;34.50;;;;;9.24;60.80;101415.81;146613;603;46025;-63
2023/01/14 07:37:14;;;;;;;;;30.50;23.75;;;;;9.05;61.47;101415.38;146611;566;46016;-64
2023/01/14 07:40:11;;;;;;;;;38.50;33.00;;;;;8.90;62.10;101424.66;146612;569;46020;-64
2023/01/14 07:43:09;;;;;;;;;33.00;30.00;;;;;8.84;62.51;101429.41;146611;595;46013;-64
2023/01/14 07:46:13;;;;;;;;;32.00;26.00;;;;;8.79;63.48;101435.16;146607;579;46020;-64
2023/01/14 07:49:11;;;;;;;;;31.75;27.25;;;;;8.78;63.70;101432.47;146610;607;46016;-64
2023/01/14 07:52:13;;;;;;;;;;;;;;;;;;;;;
2023/01/14 07:55:06;;;;;;;;;36.75;31.00;;;;;8.82;65.91;101436.19;146607;629;46016;-64
2023/01/14 07:57:58;;;;;;;;;55.75;43.50;;;;;8.86;64.51;101430.41;146614;585;46021;-67
2023/01/14 08:00:51;;;;;;;;;59.00;46.50;;;;;8.89;64.14;101434.13;146612;622;46016;-67
2023/01/14 08:03:45;;;;;;;;;52.25;42.50;;;;;8.92;64.65;101442.09;146615;576;46020;-67
2023/01/14 08:06:37;;;;;;;;;57.25;45.00;;;;;9.00;64.50;101437.44;146612;591;46016;-67
2023/01/14 08:09:34;;;;;;;;;54.00;42.00;;;;;9.08;64.32;101440.56;146615;589;46020;-66
2023/01/14 08:12:32;;;;;;;;;53.25;42.00;;;;;9.19;63.96;101437.00;146612;590;46021;-67
2023/01/14 08:15:38;;;;;;;;;;;;;;;;;;;;;
2023/01/14 08:18:40;;;;;;;;;56.00;45.75;;;;;9.54;63.32;101447.16;146609;664;46012;-67
2023/01/14 08:21:33;;;;;;;;;51.00;37.75;;;;;9.71;62.04;101448.25;146615;594;46010;-67
2023/01/14 08:24:44;;;;;;;;;49.75;40.00;;;;;9.79;61.78;101441.91;146611;683;46016;-67
2023/01/14 08:27:43;;;;;;;;;54.50;41.75;;;;;9.87;61.21;101445.88;146614;592;46020;-68
2023/01/14 08:30:41;;;;;;;;;49.75;39.25;;;;;9.92;60.70;101447.09;146607;594;46016;-68
2023/01/14 08:33:39;;;;;;;;;50.25;39.50;;;;;9.90;60.67;101456.44;146611;601;46020;-67
2023/01/14 08:36:44;;;;;;;;;52.00;41.75;;;;;9.81;60.14;101447.16;146613;595;46012;-67
2023/01/14 08:39:53;;;;;;;;;45.75;37.50;;;;;9.81;60.23;101463.63;146614;575;47010;-67
2023/01/14 08:42:48;;;;;;;;;48.00;38.25;;;;;9.82;60.58;101448.97;146614;564;46013;-68
2023/01/14 08:45:40;;;;;;;;;51.00;38.50;;;;;9.90;61.02;101455.53;146607;798;46020;-66
2023/01/14 08:48:35;;;;;;;;;46.75;38.00;;;;;10.00;61.49;101452.78;146608;617;46016;-68
2023/01/14 08:51:30;;;;;;;;;50.25;39.50;;;;;10.14;61.25;101440.69;146610;635;47020;-68
2023/01/14 08:54:31;;;;;;;;;52.00;39.75;;;;;10.30;61.15;101432.25;146611;737;46016;-67
2023/01/14 08:57:28;;;;;;;;;48.25;40.00;;;;;10.46;60.71;101424.63;146613;564;46011;-67
2023/01/14 09:00:21;;;;;;;;;52.00;40.50;;;;;10.66;60.29;101415.50;146609;609;47012;-68
2023/01/14 09:03:26;;;;;;;;;;;;;;;;;;;;;
2023/01/14 09:06:24;;;;;;;;;57.25;44.25;;;;;11.12;59.62;101410.53;146611;611;46017;-67
2023/01/14 09:19:05;;;;;;;;;49.25;37.50;;;;;11.84;56.63;101400.81;146610;569;46017;-67
2023/01/14 09:21:59;;;;;;;;;45.00;37.50;;;;;12.09;57.33;101405.75;146606;577;48010;-68
2023/01/14 09:24:54;;;;;;;;;45.75;36.50;;;;;12.32;56.00;101394.91;146610;626;46916;-67
2023/01/14 09:28:10;;;;;;;;;49.75;38.00;;;;;12.53;55.08;101399.50;146616;566;46020;-67
2023/01/14 09:31:09;;;;;;;;;42.25;35.00;;;;;12.65;55.57;101397.56;146608;570;46016;-67
2023/01/14 09:34:10;;;;;;;;;44.25;34.25;;;;;12.69;54.59;101389.09;146611;621;47010;-67
2023/01/14 09:37:05;;;;;;;;;46.00;36.25;;;;;12.67;54.37;101383.78;146610;579;46012;-66
2023/01/14 09:40:16;;;;;;;;;45.75;35.50;;;;;9.64;55.07;100854.03;146615;731;46020;-67
2023/01/14 09:43:13;;;;;;;;;39.50;32.50;;;;;12.62;54.13;101376.59;146606;754;46012;-68
2023/01/14 09:46:15;;;;;;;;;44.75;35.50;;;;;12.59;55.01;101376.41;146606;563;46030;-67
2023/01/14 09:49:14;;;;;;;;;34.50;31.25;;;;;12.66;54.71;101370.72;146600;592;48017;-68
2023/01/14 09:52:54;;;;;;;;;39.75;33.00;;;;;12.70;55.01;101364.84;146613;572;46020;-66
2023/01/14 09:56:11;;;;;;;;;35.50;31.25;;;;;12.69;54.96;101361.38;146611;630;46016;-67
2023/01/14 09:59:36;;;;;;;;;41.25;33.00;;;;;12.65;54.17;101361.12;146616;578;46010;-66
2023/01/14 10:03:09;;;;;;;;;42.50;34.75;;;;;12.60;55.17;101367.78;146607;609;47014;-66
2023/01/14 10:06:07;;;;;;;;;46.75;37.00;;;;;12.56;54.83;101363.25;146605;648;50010;-67
2023/01/14 10:09:09;;;;;;;;;46.75;35.00;;;;;12.52;55.02;101356.06;146611;593;46916;-67
2023/01/14 10:12:18;;;;;;;;;53.25;43.50;;;;;12.48;54.80;101355.91;146611;671;46010;-67
2023/01/14 10:15:55;;;;;;;;;60.75;47.75;;;;;9.81;55.48;100880.91;146609;563;46016;-67
2023/01/14 10:19:24;;;;;;;;;41.50;34.00;;;;;12.42;55.20;101345.19;146608;627;46010;-67
2023/01/14 10:22:51;;;;;;;;;44.50;35.25;;;;;9.70;55.48;100879.38;146609;685;46016;-68
2023/01/14 10:25:49;;;;;;;;;46.25;35.50;;;;;12.31;55.41;101338.53;146609;766;46011;-67
2023/01/14 10:28:53;;;;;;;;;46.50;35.75;;;;;12.30;55.03;101334.13;146608;657;46037;-67
2023/01/14 10:32:12;;;;;;;;;41.25;34.25;;;;;12.29;55.52;101334.94;146613;573;46021;-67
2023/01/14 10:35:05;;;;;;;;;39.50;33.50;;;;;12.26;55.72;101329.56;146601;634;48014;-67
2023/01/14 10:38:19;;;;;;;;;35.00;31.75;;;;;9.65;55.65;100868.75;146602;574;48020;-67
2023/01/14 10:41:13;;;;;;;;;43.75;36.00;;;;;12.27;56.66;101330.47;146610;702;47013;-66
2023/01/14 10:44:43;;;;;;;;;49.25;38.50;;;;;12.18;56.68;101331.78;146614;569;46010;-69
2023/01/14 10:47:44;;;;;;;;;52.25;39.25;;;;;12.15;57.20;101330.69;146608;588;46016;-67
2023/01/14 10:50:48;;;;;;;;;47.50;38.00;;;;;12.22;56.64;101330.22;146607;624;47010;-67
2023/01/14 10:53:42;;;;;;;;;45.50;36.50;;;;;12.41;56.98;101313.91;146608;650;46012;-67
2023/01/14 10:56:38;;;;;;;;;33.50;30.00;;;;;12.54;55.04;101321.53;146609;576;46010;-68
2023/01/14 10:59:47;;;;;;;;;33.25;27.75;;;;;12.56;54.92;101319.03;146603;574;47017;-67
2023/01/14 11:03:10;;;;;;;;;30.50;28.00;;;;;10.12;55.78;100873.12;146614;585;46021;-68
2023/01/14 11:06:32;;;;;;;;;;;;;;;;;;;;;
2023/01/14 11:09:51;;;;;;;;;36.75;29.00;;;;;13.21;53.65;101318.00;146612;588;46021;-67
2023/01/14 11:12:48;;;;;;;;;29.25;26.75;;;;;13.54;51.90;101308.37;146608;613;47012;-68
2023/01/14 11:16:06;;;;;;;;;34.50;30.25;;;;;11.26;52.47;100856.69;146606;619;48010;-67
2023/01/14 11:19:34;;;;;;;;;41.00;32.00;;;;;13.95;52.76;101297.31;146608;628;47016;-67
2023/01/14 11:22:30;;;;;;;;;34.50;30.50;;;;;14.14;51.92;101293.84;146603;723;46010;-68
2023/01/14 11:25:39;;;;;;;;;40.75;33.00;;;;;14.36;51.95;101287.91;146608;564;46023;-68
2023/01/14 11:28:35;;;;;;;;;41.25;33.00;;;;;14.60;51.13;101282.88;146608;621;47010;-66
2023/01/14 11:31:57;;;;;;;;;37.75;32.50;;;;;14.65;51.01;101289.22;146607;604;46012;-67
2023/01/14 11:35:27;;;;;;;;;40.50;32.75;;;;;14.61;50.64;101275.94;146614;624;46010;-67
2023/01/14 11:38:33;;;;;;;;;31.50;29.00;;;;;14.74;50.73;101271.34;146606;598;48016;-68
2023/01/14 11:41:50;;;;;;;;;31.75;29.00;;;;;12.43;51.02;100833.75;146607;601;46020;-67
2023/01/14 11:44:51;;;;;;;;;31.75;27.25;;;;;15.09;49.60;101266.72;146615;578;46016;-67
2023/01/14 11:48:03;;;;;;;;;33.75;30.00;;;;;15.18;49.52;101261.88;146622;605;46021;-67
2023/01/14 11:51:05;;;;;;;;;29.00;26.00;;;;;15.20;49.31;101260.22;146616;607;46012;-66
2023/01/14 11:54:00;;;;;;;;;24.75;22.00;;;;;15.28;47.97;101257.91;146614;589;46020;-67
2023/01/14 11:57:05;;;;;;;;;33.00;26.75;;;;;15.37;48.27;101257.37;146617;593;46016;-66
2023/01/14 12:00:01;;;;;;;;;31.00;27.75;;;;;15.37;46.60;101249.56;146618;631;47010;-67
2023/01/14 12:03:07;;;;;;;;;49.75;38.25;;;;;15.35;48.18;101249.47;146616;590;46016;-67
2023/01/14 12:06:04;;;;;;;;;30.75;28.00;;;;;15.29;48.00;101243.09;146622;573;46020;-69
2023/01/14 12:09:23;;;;;;;;;33.00;29.00;;;;;15.16;48.75;101254.78;146617;630;46916;-66
2023/01/14 12:12:29;;;;;;;;;41.25;31.00;;;;;14.97;49.61;101255.75;146619;566;45020;-67
2023/01/14 12:19:34;;;;;;;;;39.75;31.75;;;;;13.63;51.20;100996.13;146622;585;46010;-67
2023/01/14 12:22:42;;;;;;;;;39.50;32.25;;;;;15.41;49.63;101254.06;146618;597;46012;-66
2023/01/14 12:25:56;;;;;;;;;40.25;32.00;;;;;13.16;48.07;100818.75;146615;587;46010;-67
2023/01/14 12:28:56;;;;;;;;;30.75;27.25;;;;;15.89;47.27;101257.75;146613;563;47012;-66
2023/01/14 12:32:24;;;;;;;;;29.00;24.50;;;;;16.14;48.53;101263.91;146618;565;47012;-67
2023/01/14 12:35:25;;;;;;;;;27.25;25.00;;;;;16.44;46.12;101261.50;146614;601;46913;-67
2023/01/14 12:46:33;;;;;;;;;22.50;19.75;;;;;16.13;46.83;101272.56;146615;582;46020;-67
2023/01/14 12:49:31;;;;;;;;;20.25;19.00;;;;;15.70;46.27;101268.34;146610;601;46016;-66
2023/01/14 12:52:57;;;;;;;;;31.00;26.00;;;;;13.21;49.12;100899.66;146611;589;46020;-67
2023/01/14 12:56:09;;;;;;;;;;;;;;;;;;;;;
2023/01/14 12:59:46;;;;;;;;;23.25;23.00;;;;;11.89;49.44;100833.84;146606;573;46020;-67
2023/01/14 13:03:00;;;;;;;;;26.75;24.25;;;;;14.10;49.61;101278.88;146609;613;46017;-67
2023/01/14 13:06:28;;;;;;;;;23.25;22.50;;;;;11.34;51.06;100846.72;146613;694;46020;-66
2023/01/14 13:09:34;;;;;;;;;26.75;24.50;;;;;13.67;50.77;101281.19;146609;597;46017;-67
2023/01/14 13:12:59;;;;;;;;;28.50;24.75;;;;;13.54;50.98;101277.13;146613;582;46010;-67
2023/01/14 13:16:01;;;;;;;;;27.00;23.25;;;;;13.39;50.97;101278.19;146608;572;46013;-66
2023/01/14 13:19:24;;;;;;;;;27.75;26.75;;;;;13.31;52.09;101276.00;146611;612;46020;-67
2023/01/14 13:22:39;;;;;;;;;29.25;27.50;;;;;13.22;51.31;101279.03;146609;651;46016;-67
2023/01/14 13:26:06;;;;;;;;;33.50;27.50;;;;;13.15;52.30;101266.53;146610;606;46021;-66
2023/01/14 13:29:24;;;;;;;;;27.50;24.50;;;;;13.09;52.74;101271.44;146610;588;46012;-67
2023/01/14 13:32:54;;;;;;;;;26.00;22.00;;;;;10.36;52.33;100807.91;146605;586;46010;-66
2023/01/14 13:36:17;;;;;;;;;26.25;23.25;;;;;12.95;51.64;101269.00;146610;689;46016;-67
2023/01/14 13:39:14;;;;;;;;;24.00;22.00;;;;;12.90;52.28;101270.50;146612;604;46010;-68
2023/01/14 13:42:20;;;;;;;;;33.50;30.25;;;;;12.87;52.69;101275.56;146608;597;46016;-67
2023/01/14 13:45:34;;;;;;;;;26.75;25.50;;;;;12.85;53.01;101276.28;146607;691;47010;-67
2023/01/14 13:48:39;;;;;;;;;32.50;29.00;;;;;12.84;52.54;101272.78;146607;565;46012;-67
2023/01/14 13:51:54;;;;;;;;;32.50;29.00;;;;;12.84;53.31;101283.19;146615;618;46020;-68
2023/01/14 13:54:50;;;;;;;;;37.00;31.00;;;;;12.80;52.67;101273.44;146607;581;46038;-67
2023/01/14 13:57:51;;;;;;;;;42.75;34.50;;;;;12.80;53.07;101276.03;146614;571;46020;-66
2023/01/14 14:00:46;;;;;;;;;41.00;34.25;;;;;12.81;52.75;101277.84;146612;645;46013;-67
2023/01/14 14:03:45;;;;;;;;;62.50;48.25;;;;;12.83;52.94;101273.59;146607;694;46020;-67
2023/01/14 14:06:54;;;;;;;;;61.75;48.25;;;;;12.86;53.26;101268.53;146613;572;46016;-67
2023/01/14 14:09:47;;;;;;;;;40.00;32.50;;;;;12.87;52.59;101265.16;146614;594;46020;-67
2023/01/14 14:16:06;;;;;;;;;57.00;46.25;;;;;13.09;52.68;101263.63;146612;612;46022;-66
2023/01/14 14:19:46;;;;;;;;;50.25;40.00;;;;;13.21;53.30;101264.22;146609;642;46012;-68
2023/01/14 14:23:09;;;;;;;;;52.25;40.50;;;;;13.26;52.86;101260.16;146615;574;46021;-68
2023/01/14 14:26:04;;;;;;;;;52.25;40.75;;;;;13.25;52.50;101268.78;146606;575;46016;-67
2023/01/14 14:29:01;;;;;;;;;45.75;37.75;;;;;13.23;52.33;101266.88;146612;660;46010;-68
2023/01/14 14:31:56;;;;;;;;;44.75;35.75;;;;;13.18;52.30;101267.56;146609;585;46012;-67
2023/01/14 14:35:19;;;;;;;;;47.25;39.00;;;;;13.17;52.87;101264.88;146608;615;46012;-67
2023/01/14 14:38:31;;;;;;;;;56.25;45.25;;;;;13.15;53.64;101261.31;146611;620;46017;-67
2023/01/14 14:41:41;;;;;;;;;79.00;71.33;;;;;10.64;53.52;100815.44;146611;563;47012;-67
2023/01/14 14:44:41;;;;;;;;;59.75;46.75;;;;;13.24;52.51;101256.56;146612;652;46918;-66
2023/01/14 14:47:49;;;;;;;;;50.25;40.00;;;;;13.27;51.85;101256.75;146610;577;47010;-65
2023/01/14 14:50:52;;;;;;;;;40.00;34.75;;;;;10.65;52.29;100801.66;146610;612;46016;-66
2023/01/14 14:53:45;;;;;;;;;40.00;32.00;;;;;13.23;51.49;101254.75;146614;644;46020;-69
2023/01/14 14:56:43;;;;;;;;;35.00;31.25;;;;;13.19;51.88;101252.81;146606;658;46016;-67
2023/01/14 14:59:47;;;;;;;;;44.50;36.25;;;;;13.13;52.47;101263.81;146614;587;46021;-68
2023/01/14 15:03:07;;;;;;;;;44.50;35.25;;;;;12.99;52.81;101267.47;146605;632;48012;-68
2023/01/14 15:06:10;;;;;;;;;42.50;33.75;;;;;12.85;53.53;101273.69;146602;633;46020;-68
2023/01/14 15:09:08;;;;;;;;;41.00;34.00;;;;;12.65;53.70;101278.78;146606;569;47014;-67
2023/01/14 15:12:16;;;;;;;;;41.50;31.75;;;;;12.47;54.42;101283.91;146609;627;46012;-67
2023/01/14 15:15:35;;;;;;;;;;;;;;;;;;;;;